createdAt,value
2019-02-27T00:04:52.976Z,7.98
2019-02-27T00:09:58.078Z,7.97
2019-02-27T00:15:05.030Z,7.99
2019-02-27T00:20:10.901Z,8.04
2019-02-27T00:25:16.208Z,8.01
2019-02-27T00:30:21.266Z,8.07
2019-02-27T00:35:26.346Z,8.06
2019-02-27T00:40:31.335Z,7.97
2019-02-27T00:45:39.696Z,7.93
2019-02-27T00:50:43.095Z,7.85
2019-02-27T00:55:52.488Z,7.86
2019-02-27T01:00:58.076Z,7.84
2019-02-27T01:06:03.132Z,7.71
2019-02-27T01:11:08.126Z,7.51
2019-02-27T01:16:16.989Z,7.55
2019-02-27T01:21:20.153Z,7.47
2019-02-27T01:26:25.232Z,7.49
2019-02-27T01:31:32.779Z,7.50
2019-02-27T01:36:37.850Z,7.42
2019-02-27T01:41:45.174Z,7.52
2019-02-27T01:46:50.276Z,7.44
2019-02-27T01:51:54.286Z,7.34
2019-02-27T01:57:02.871Z,7.11
2019-02-27T02:02:06.645Z,7.09
2019-02-27T02:07:10.666Z,7.07
2019-02-27T02:12:16.342Z,7.08
2019-02-27T02:17:31.212Z,7.02
2019-02-27T02:23:06.564Z,7.05
2019-02-27T02:28:38.766Z,7.07
2019-02-27T02:33:58.049Z,7.06
2019-02-27T02:39:21.137Z,6.97
2019-02-27T02:44:47.034Z,6.93
2019-02-27T02:50:18.458Z,6.92
2019-02-27T02:55:49.364Z,6.92
2019-02-27T03:01:15.178Z,6.89
2019-02-27T03:06:52.185Z,6.76
2019-02-27T03:12:34.451Z,6.54
2019-02-27T03:18:18.103Z,6.32
2019-02-27T03:23:41.251Z,6.13
2019-02-27T03:29:03.202Z,6.15
2019-02-27T03:34:48.071Z,6.23
2019-02-27T03:40:16.082Z,6.20
2019-02-27T03:46:08.909Z,6.07
2019-02-27T03:51:35.761Z,5.87
2019-02-27T03:57:26.784Z,5.80
2019-02-27T04:03:05.823Z,5.78
2019-02-27T04:08:49.715Z,5.94
2019-02-27T04:14:03.004Z,6.01
2019-02-27T04:19:04.480Z,5.82
2019-02-27T04:24:09.124Z,5.80
2019-02-27T04:29:14.159Z,5.77
2019-02-27T04:34:19.183Z,5.68
2019-02-27T04:39:24.447Z,5.45
2019-02-27T04:44:29.827Z,5.39
2019-02-27T04:49:37.856Z,5.37
2019-02-27T04:54:42.212Z,5.37
2019-02-27T04:59:49.783Z,5.30
2019-02-27T05:04:54.012Z,5.32
2019-02-27T05:09:59.037Z,5.30
2019-02-27T05:15:05.128Z,5.17
2019-02-27T05:20:12.431Z,5.06
2019-02-27T05:25:17.894Z,5.16
2019-02-27T05:30:22.864Z,5.21
2019-02-27T05:35:28.032Z,5.27
2019-02-27T05:40:33.536Z,5.35
2019-02-27T05:45:38.495Z,5.39
2019-02-27T05:50:44.430Z,5.43
2019-02-27T05:55:49.787Z,5.50
2019-02-27T06:00:55.206Z,5.48
2019-02-27T06:06:00.343Z,5.44
2019-02-27T06:11:05.347Z,5.31
2019-02-27T06:16:10.307Z,5.27
2019-02-27T06:21:16.397Z,5.25
2019-02-27T06:26:21.615Z,5.29
2019-02-27T06:31:26.607Z,5.22
2019-02-27T06:36:31.662Z,4.99
2019-02-27T06:41:36.655Z,4.84
2019-02-27T06:46:41.721Z,4.75
2019-02-27T06:51:47.183Z,4.63
2019-02-27T06:56:52.253Z,4.72
2019-02-27T07:01:57.419Z,4.82
2019-02-27T07:07:02.459Z,4.92
2019-02-27T07:12:07.521Z,5.00
2019-02-27T07:17:12.861Z,5.13
2019-02-27T07:22:20.267Z,5.23
2019-02-27T07:27:31.214Z,5.27
2019-02-27T07:32:36.658Z,5.32
2019-02-27T07:37:41.767Z,5.47
2019-02-27T07:42:46.881Z,5.54
2019-02-27T07:47:51.960Z,5.55
2019-02-27T07:52:57.002Z,5.61
2019-02-27T07:58:02.069Z,5.74
2019-02-27T08:03:09.877Z,5.84
2019-02-27T08:08:14.209Z,5.93
2019-02-27T08:13:19.203Z,6.04
2019-02-27T08:18:30.000Z,6.18
2019-02-27T08:23:32.671Z,6.47
2019-02-27T08:28:38.108Z,6.81
2019-02-27T08:33:43.193Z,7.16
2019-02-27T08:38:48.185Z,7.51
2019-02-27T08:43:53.200Z,7.87
2019-02-27T08:48:58.517Z,7.91
2019-02-27T08:54:03.909Z,7.92
2019-02-27T08:59:09.438Z,7.93
2019-02-27T09:04:15.695Z,8.07
2019-02-27T09:09:21.099Z,8.18
2019-02-27T09:14:26.532Z,8.31
2019-02-27T09:19:31.653Z,8.46
2019-02-27T09:24:36.775Z,8.86
2019-02-27T09:29:40.836Z,10.74
2019-02-27T09:34:44.783Z,15.60
2019-02-27T09:39:48.923Z,19.44
2019-02-27T09:44:52.973Z,23.00
2019-02-27T09:49:57.338Z,24.83
2019-02-27T09:55:01.665Z,27.63
2019-02-27T10:00:06.927Z,28.32
2019-02-27T10:05:12.457Z,28.31
2019-02-27T10:10:16.634Z,29.13
2019-02-27T10:15:22.530Z,28.98
2019-02-27T10:20:26.114Z,29.30
2019-02-27T10:25:30.144Z,30.33
2019-02-27T10:30:34.037Z,29.25
2019-02-27T10:35:38.003Z,29.65
2019-02-27T10:40:41.909Z,31.56
2019-02-27T10:45:49.310Z,29.03
2019-02-27T10:50:53.594Z,26.57
2019-02-27T10:55:58.594Z,23.61
2019-02-27T11:01:04.081Z,23.61
2019-02-27T11:06:09.219Z,22.52
2019-02-27T11:11:16.276Z,20.89
2019-02-27T11:16:22.004Z,21.11
2019-02-27T11:21:27.620Z,21.45
2019-02-27T11:26:33.957Z,20.61
2019-02-27T11:31:39.106Z,18.92
2019-02-27T11:36:44.222Z,19.67
2019-02-27T11:41:52.276Z,21.94
2019-02-27T11:46:58.916Z,21.47
2019-02-27T11:52:03.335Z,20.95
2019-02-27T11:57:07.571Z,21.45
2019-02-27T12:02:12.585Z,22.12
2019-02-27T12:07:17.989Z,21.52
2019-02-27T12:12:23.396Z,23.99
2019-02-27T12:17:27.719Z,24.88
2019-02-27T12:22:32.971Z,24.95
2019-02-27T12:27:49.283Z,24.94
2019-02-27T12:32:44.327Z,25.83
2019-02-27T12:37:48.347Z,28.57
2019-02-27T12:42:52.203Z,30.12
2019-02-27T12:47:59.450Z,30.88
2019-02-27T12:53:03.627Z,30.86
2019-02-27T12:58:07.553Z,30.25
2019-02-27T13:03:11.555Z,30.05
2019-02-27T13:08:16.356Z,30.01
2019-02-27T13:13:23.299Z,29.34
2019-02-27T13:18:31.638Z,28.31
2019-02-27T13:23:33.201Z,28.31
2019-02-27T13:28:38.170Z,28.44
2019-02-27T13:33:42.145Z,28.05
2019-02-27T13:38:46.337Z,27.06
2019-02-27T13:43:50.560Z,27.39
2019-02-27T13:48:54.578Z,27.22
2019-02-27T13:54:00.652Z,26.83
2019-02-27T13:59:13.030Z,25.73
2019-02-27T14:04:21.671Z,25.50
2019-02-27T14:09:34.679Z,25.63
2019-02-27T14:14:39.226Z,25.36
2019-02-27T14:19:44.483Z,25.09
2019-02-27T14:24:51.844Z,23.27
2019-02-27T14:29:58.231Z,22.77
2019-02-27T14:35:03.299Z,22.34
2019-02-27T14:40:10.880Z,21.19
2019-02-27T14:45:17.646Z,20.08
2019-02-27T14:50:23.053Z,19.23
2019-02-27T14:55:28.428Z,18.84
2019-02-27T15:00:33.729Z,18.36
2019-02-27T15:05:43.144Z,18.16
2019-02-27T15:10:47.157Z,18.11
2019-02-27T15:15:53.218Z,18.00
2019-02-27T15:20:58.385Z,17.98
2019-02-27T15:26:04.884Z,17.91
2019-02-27T15:31:10.022Z,17.71
2019-02-27T15:36:15.582Z,17.62
2019-02-27T15:41:21.383Z,17.55
2019-02-27T15:46:26.981Z,17.43
2019-02-27T15:51:33.248Z,17.43
2019-02-27T15:56:42.089Z,17.37
2019-02-27T16:01:48.317Z,17.23
2019-02-27T16:06:53.388Z,17.09
2019-02-27T16:12:00.443Z,16.99
2019-02-27T16:17:05.643Z,16.87
2019-02-27T16:22:10.819Z,16.81
2019-02-27T16:27:16.004Z,16.66
2019-02-27T16:32:21.024Z,16.60
2019-02-27T16:37:26.257Z,16.44
2019-02-27T16:42:31.880Z,16.30
2019-02-27T16:47:37.197Z,16.16
2019-02-27T16:52:42.812Z,15.97
2019-02-27T16:57:48.070Z,15.81
2019-02-27T17:02:53.183Z,15.67
2019-02-27T17:08:02.007Z,15.49
2019-02-27T17:13:05.549Z,15.34
2019-02-27T17:18:12.705Z,15.20
2019-02-27T17:23:17.594Z,15.07
2019-02-27T17:28:22.710Z,14.99
2019-02-27T17:33:27.869Z,14.90
2019-02-27T17:38:33.849Z,14.82
2019-02-27T17:43:38.868Z,14.72
2019-02-27T17:48:46.045Z,14.57
2019-02-27T17:53:51.252Z,14.44
2019-02-27T17:58:56.476Z,14.34
2019-02-27T18:04:01.936Z,14.20
2019-02-27T18:09:07.288Z,14.07
2019-02-27T18:14:14.066Z,13.93
2019-02-27T18:19:20.542Z,13.82
2019-02-27T18:24:25.616Z,13.73
2019-02-27T18:29:30.594Z,13.74
2019-02-27T18:34:35.696Z,13.74
2019-02-27T18:39:42.119Z,13.74
2019-02-27T18:44:47.615Z,13.65
2019-02-27T18:49:53.227Z,13.44
2019-02-27T18:55:08.342Z,13.31
2019-02-27T19:00:23.369Z,13.32
2019-02-27T19:05:38.217Z,13.32
2019-02-27T19:10:43.486Z,13.21
2019-02-27T19:15:49.112Z,13.12
2019-02-27T19:20:56.201Z,13.05
2019-02-27T19:26:02.081Z,12.99
2019-02-27T19:31:07.815Z,12.88
2019-02-27T19:36:19.093Z,12.75
2019-02-27T19:41:25.359Z,12.66
2019-02-27T19:46:30.439Z,12.58
2019-02-27T19:51:54.622Z,12.48
2019-02-27T19:56:55.977Z,12.33
2019-02-27T20:02:01.217Z,12.24
2019-02-27T20:07:18.308Z,12.21
2019-02-27T20:12:36.689Z,12.25
2019-02-27T20:17:44.309Z,12.24
2019-02-27T20:22:56.533Z,12.22
2019-02-27T20:28:02.405Z,12.28
2019-02-27T20:33:14.099Z,12.27
2019-02-27T20:38:22.053Z,12.23
2019-02-27T20:43:29.428Z,12.03
2019-02-27T20:48:36.022Z,11.96
2019-02-27T20:53:44.576Z,11.80
2019-02-27T20:58:52.002Z,11.80
2019-02-27T21:04:02.294Z,11.77
2019-02-27T21:09:11.799Z,11.73
2019-02-27T21:14:16.672Z,11.63
2019-02-27T21:19:21.885Z,11.50
2019-02-27T21:24:28.206Z,11.45
2019-02-27T21:29:34.368Z,11.36
2019-02-27T21:34:45.711Z,11.26
2019-02-27T21:39:50.903Z,11.29
2019-02-27T21:44:56.311Z,11.30
2019-02-27T21:50:03.740Z,11.35
2019-02-27T21:55:13.012Z,11.33
2019-02-27T22:00:20.912Z,11.24
2019-02-27T22:05:26.160Z,11.15
2019-02-27T22:10:31.475Z,11.08
2019-02-27T22:15:36.567Z,11.01
2019-02-27T22:20:42.761Z,10.89
2019-02-27T22:25:47.884Z,10.87
2019-02-27T22:30:52.893Z,10.75
2019-02-27T22:35:57.951Z,10.58
2019-02-27T22:41:04.136Z,10.40
2019-02-27T22:46:09.585Z,10.31
2019-02-27T22:51:14.597Z,10.28
2019-02-27T22:56:20.642Z,10.26
2019-02-27T23:01:30.420Z,10.25
2019-02-27T23:06:34.577Z,10.19
2019-02-27T23:11:39.702Z,10.17
2019-02-27T23:16:43.718Z,10.22
2019-02-27T23:21:47.571Z,10.16
2019-02-27T23:26:54.699Z,10.07
2019-02-27T23:31:57.245Z,9.96
2019-02-27T23:37:01.362Z,9.96
2019-02-27T23:42:05.364Z,9.88
2019-02-27T23:47:09.304Z,9.94
2019-02-27T23:52:13.274Z,9.94
2019-02-27T23:57:17.307Z,9.79
